sensor_id;sensor_type;location;lat;lon;timestamp;temperature;humidity
35603;DHT22;21725;50.836;4.368;2023-04-03T00:03:15;7.50;99.90
35603;DHT22;21725;50.836;4.368;2023-04-03T00:06:27;7.50;99.90
35603;DHT22;21725;50.836;4.368;2023-04-03T00:09:39;7.50;99.90
35603;DHT22;21725;50.836;4.368;2023-04-03T00:12:40;7.40;99.90
35603;DHT22;21725;50.836;4.368;2023-04-03T00:15:53;7.50;99.90
35603;DHT22;21725;50.836;4.368;2023-04-03T00:19:04;7.50;99.90
35603;DHT22;21725;50.836;4.368;2023-04-03T00:22:26;7.40;99.90
35603;DHT22;21725;50.836;4.368;2023-04-03T00:25:32;7.30;99.90
35603;DHT22;21725;50.836;4.368;2023-04-03T00:28:42;7.30;99.90
35603;DHT22;21725;50.836;4.368;2023-04-03T00:32:03;7.30;99.90
35603;DHT22;21725;50.836;4.368;2023-04-03T00:35:08;7.40;99.90
35603;DHT22;21725;50.836;4.368;2023-04-03T00:38:21;7.30;99.90
35603;DHT22;21725;50.836;4.368;2023-04-03T00:41:42;7.20;99.90
35603;DHT22;21725;50.836;4.368;2023-04-03T00:47:49;7.20;99.90
35603;DHT22;21725;50.836;4.368;2023-04-03T00:51:02;7.20;99.90
35603;DHT22;21725;50.836;4.368;2023-04-03T00:54:13;7.20;99.90
35603;DHT22;21725;50.836;4.368;2023-04-03T00:57:24;7.10;99.90
35603;DHT22;21725;50.836;4.368;2023-04-03T01:00:44;7.00;99.90
35603;DHT22;21725;50.836;4.368;2023-04-03T01:03:54;7.20;99.90
35603;DHT22;21725;50.836;4.368;2023-04-03T01:07:11;6.70;99.90
35603;DHT22;21725;50.836;4.368;2023-04-03T01:10:15;5.80;99.90
35603;DHT22;21725;50.836;4.368;2023-04-03T01:13:42;7.00;99.90
35603;DHT22;21725;50.836;4.368;2023-04-03T01:16:57;6.90;99.90
35603;DHT22;21725;50.836;4.368;2023-04-03T01:23:49;6.80;99.90
35603;DHT22;21725;50.836;4.368;2023-04-03T01:26:52;6.20;99.90
35603;DHT22;21725;50.836;4.368;2023-04-03T01:30:09;6.70;99.90
35603;DHT22;21725;50.836;4.368;2023-04-03T01:33:24;6.70;99.90
35603;DHT22;21725;50.836;4.368;2023-04-03T01:36:30;6.70;99.90
35603;DHT22;21725;50.836;4.368;2023-04-03T01:40:15;6.70;99.90
35603;DHT22;21725;50.836;4.368;2023-04-03T01:43:43;6.20;99.90
35603;DHT22;21725;50.836;4.368;2023-04-03T01:46:52;6.70;99.90
35603;DHT22;21725;50.836;4.368;2023-04-03T01:49:58;6.60;99.90
35603;DHT22;21725;50.836;4.368;2023-04-03T01:53:10;6.70;99.90
35603;DHT22;21725;50.836;4.368;2023-04-03T01:56:33;6.70;99.90
35603;DHT22;21725;50.836;4.368;2023-04-03T01:59:44;6.70;99.90
35603;DHT22;21725;50.836;4.368;2023-04-03T02:03:05;6.60;99.90
35603;DHT22;21725;50.836;4.368;2023-04-03T02:06:08;6.50;99.90
35603;DHT22;21725;50.836;4.368;2023-04-03T02:13:05;6.50;99.90
35603;DHT22;21725;50.836;4.368;2023-04-03T02:16:47;6.40;99.90
35603;DHT22;21725;50.836;4.368;2023-04-03T02:19:50;6.30;99.90
35603;DHT22;21725;50.836;4.368;2023-04-03T02:23:01;6.20;99.90
35603;DHT22;21725;50.836;4.368;2023-04-03T02:26:20;6.20;99.90
35603;DHT22;21725;50.836;4.368;2023-04-03T02:29:54;6.20;99.90
35603;DHT22;21725;50.836;4.368;2023-04-03T02:33:36;5.30;99.90
35603;DHT22;21725;50.836;4.368;2023-04-03T02:36:44;6.10;99.90
35603;DHT22;21725;50.836;4.368;2023-04-03T02:40:09;5.90;99.90
35603;DHT22;21725;50.836;4.368;2023-04-03T02:43:19;5.90;99.90
35603;DHT22;21725;50.836;4.368;2023-04-03T02:46:25;5.80;99.90
35603;DHT22;21725;50.836;4.368;2023-04-03T02:49:28;5.80;99.90
35603;DHT22;21725;50.836;4.368;2023-04-03T02:52:29;5.80;99.90
35603;DHT22;21725;50.836;4.368;2023-04-03T02:55:43;5.80;99.90
35603;DHT22;21725;50.836;4.368;2023-04-03T02:58:49;5.80;99.90
35603;DHT22;21725;50.836;4.368;2023-04-03T03:02:10;5.80;99.90
35603;DHT22;21725;50.836;4.368;2023-04-03T03:05:32;6.20;99.90
35603;DHT22;21725;50.836;4.368;2023-04-03T03:08:41;5.70;99.90
35603;DHT22;21725;50.836;4.368;2023-04-03T03:11:44;5.70;99.90
35603;DHT22;21725;50.836;4.368;2023-04-03T03:14:58;5.60;99.90
35603;DHT22;21725;50.836;4.368;2023-04-03T03:17:59;5.60;99.90
35603;DHT22;21725;50.836;4.368;2023-04-03T03:21:09;5.50;99.90
35603;DHT22;21725;50.836;4.368;2023-04-03T03:24:26;5.70;99.90
35603;DHT22;21725;50.836;4.368;2023-04-03T03:27:34;5.80;99.90
35603;DHT22;21725;50.836;4.368;2023-04-03T03:30:44;5.80;99.90
35603;DHT22;21725;50.836;4.368;2023-04-03T03:33:44;5.80;99.90
35603;DHT22;21725;50.836;4.368;2023-04-03T03:36:47;5.80;99.90
35603;DHT22;21725;50.836;4.368;2023-04-03T03:40:14;5.80;99.90
35603;DHT22;21725;50.836;4.368;2023-04-03T03:43:17;5.80;99.90
35603;DHT22;21725;50.836;4.368;2023-04-03T03:46:18;5.90;99.90
35603;DHT22;21725;50.836;4.368;2023-04-03T03:49:39;6.00;99.90
35603;DHT22;21725;50.836;4.368;2023-04-03T03:52:42;6.00;99.90
35603;DHT22;21725;50.836;4.368;2023-04-03T03:55:48;6.00;99.90
35603;DHT22;21725;50.836;4.368;2023-04-03T03:59:06;6.00;99.90
35603;DHT22;21725;50.836;4.368;2023-04-03T04:02:35;5.90;99.90
35603;DHT22;21725;50.836;4.368;2023-04-03T04:05:38;5.90;99.90
35603;DHT22;21725;50.836;4.368;2023-04-03T04:42:52;3.40;99.90
35603;DHT22;21725;50.836;4.368;2023-04-03T04:46:06;5.10;99.90
35603;DHT22;21725;50.836;4.368;2023-04-03T04:49:42;5.40;99.90
35603;DHT22;21725;50.836;4.368;2023-04-03T04:52:57;5.60;99.90
35603;DHT22;21725;50.836;4.368;2023-04-03T04:56:06;5.80;99.90
35603;DHT22;21725;50.836;4.368;2023-04-03T04:59:25;5.80;99.90
35603;DHT22;21725;50.836;4.368;2023-04-03T05:02:28;5.80;99.90
35603;DHT22;21725;50.836;4.368;2023-04-03T05:05:42;6.00;99.90
35603;DHT22;21725;50.836;4.368;2023-04-03T05:08:48;5.90;99.90
35603;DHT22;21725;50.836;4.368;2023-04-03T05:12:09;5.90;99.90
35603;DHT22;21725;50.836;4.368;2023-04-03T05:15:50;5.90;99.90
35603;DHT22;21725;50.836;4.368;2023-04-03T05:19:06;6.20;99.90
35603;DHT22;21725;50.836;4.368;2023-04-03T05:22:39;5.80;99.90
35603;DHT22;21725;50.836;4.368;2023-04-03T05:25:53;5.70;99.90
35603;DHT22;21725;50.836;4.368;2023-04-03T05:29:14;5.70;99.90
35603;DHT22;21725;50.836;4.368;2023-04-03T05:32:45;5.60;99.90
35603;DHT22;21725;50.836;4.368;2023-04-03T05:35:51;5.70;99.90
35603;DHT22;21725;50.836;4.368;2023-04-03T05:39:17;5.60;99.90
35603;DHT22;21725;50.836;4.368;2023-04-03T05:42:23;5.50;99.90
35603;DHT22;21725;50.836;4.368;2023-04-03T05:45:24;5.50;99.90
35603;DHT22;21725;50.836;4.368;2023-04-03T05:48:48;5.60;99.90
35603;DHT22;21725;50.836;4.368;2023-04-03T05:52:17;5.70;99.90
35603;DHT22;21725;50.836;4.368;2023-04-03T05:55:27;5.90;99.90
35603;DHT22;21725;50.836;4.368;2023-04-03T05:58:27;5.50;99.90
35603;DHT22;21725;50.836;4.368;2023-04-03T06:01:52;5.70;99.90
35603;DHT22;21725;50.836;4.368;2023-04-03T06:05:13;6.00;99.90
35603;DHT22;21725;50.836;4.368;2023-04-03T06:08:30;6.10;99.90
35603;DHT22;21725;50.836;4.368;2023-04-03T06:15:03;6.10;99.90
35603;DHT22;21725;50.836;4.368;2023-04-03T06:18:21;6.00;99.90
35603;DHT22;21725;50.836;4.368;2023-04-03T06:21:45;5.90;99.90
35603;DHT22;21725;50.836;4.368;2023-04-03T06:28:25;6.00;99.90
35603;DHT22;21725;50.836;4.368;2023-04-03T06:31:28;6.10;99.90
35603;DHT22;21725;50.836;4.368;2023-04-03T06:34:49;6.30;99.90
35603;DHT22;21725;50.836;4.368;2023-04-03T06:38:05;6.40;99.90
35603;DHT22;21725;50.836;4.368;2023-04-03T06:41:34;6.60;99.90
35603;DHT22;21725;50.836;4.368;2023-04-03T06:44:48;5.20;99.90
35603;DHT22;21725;50.836;4.368;2023-04-03T06:47:54;7.00;99.90
35603;DHT22;21725;50.836;4.368;2023-04-03T06:51:29;8.20;99.90
35603;DHT22;21725;50.836;4.368;2023-04-03T06:54:50;9.40;97.50
35603;DHT22;21725;50.836;4.368;2023-04-03T06:58:09;10.20;96.00
35603;DHT22;21725;50.836;4.368;2023-04-03T07:01:14;10.90;94.60
35603;DHT22;21725;50.836;4.368;2023-04-03T07:04:25;11.30;94.00
35603;DHT22;21725;50.836;4.368;2023-04-03T07:08:01;11.70;92.90
35603;DHT22;21725;50.836;4.368;2023-04-03T07:11:03;11.90;93.00
35603;DHT22;21725;50.836;4.368;2023-04-03T07:14:41;12.10;92.60
35603;DHT22;21725;50.836;4.368;2023-04-03T07:17:50;13.00;91.90
35603;DHT22;21725;50.836;4.368;2023-04-03T07:28:17;13.70;88.80
35603;DHT22;21725;50.836;4.368;2023-04-03T07:31:21;13.20;89.40
35603;DHT22;21725;50.836;4.368;2023-04-03T07:34:42;13.00;90.20
35603;DHT22;21725;50.836;4.368;2023-04-03T07:38:00;12.40;89.60
35603;DHT22;21725;50.836;4.368;2023-04-03T07:41:05;11.40;89.90
35603;DHT22;21725;50.836;4.368;2023-04-03T07:44:16;10.60;91.30
35603;DHT22;21725;50.836;4.368;2023-04-03T07:47:43;10.00;92.70
35603;DHT22;21725;50.836;4.368;2023-04-03T07:50:47;10.00;93.10
35603;DHT22;21725;50.836;4.368;2023-04-03T07:53:51;9.90;93.40
35603;DHT22;21725;50.836;4.368;2023-04-03T07:56:55;9.60;93.10
35603;DHT22;21725;50.836;4.368;2023-04-03T08:00:45;9.50;93.60
35603;DHT22;21725;50.836;4.368;2023-04-03T08:03:58;8.60;93.60
35603;DHT22;21725;50.836;4.368;2023-04-03T08:06:59;8.70;94.80
35603;DHT22;21725;50.836;4.368;2023-04-03T08:10:00;8.60;95.10
35603;DHT22;21725;50.836;4.368;2023-04-03T08:13:36;8.50;95.00
35603;DHT22;21725;50.836;4.368;2023-04-03T08:17:03;8.40;95.10
35603;DHT22;21725;50.836;4.368;2023-04-03T08:20:24;8.30;95.90
35603;DHT22;21725;50.836;4.368;2023-04-03T08:23:29;8.20;95.80
35603;DHT22;21725;50.836;4.368;2023-04-03T08:26:33;8.20;96.40
35603;DHT22;21725;50.836;4.368;2023-04-03T08:29:44;8.50;95.60
35603;DHT22;21725;50.836;4.368;2023-04-03T08:32:47;8.50;95.50
35603;DHT22;21725;50.836;4.368;2023-04-03T08:36:00;8.50;95.90
35603;DHT22;21725;50.836;4.368;2023-04-03T08:39:36;8.60;96.00
35603;DHT22;21725;50.836;4.368;2023-04-03T08:43:00;8.80;94.70
35603;DHT22;21725;50.836;4.368;2023-04-03T08:46:05;8.70;95.00
35603;DHT22;21725;50.836;4.368;2023-04-03T08:49:45;8.60;95.40
35603;DHT22;21725;50.836;4.368;2023-04-03T08:52:59;8.60;96.00
35603;DHT22;21725;50.836;4.368;2023-04-03T08:56:15;8.90;95.20
35603;DHT22;21725;50.836;4.368;2023-04-03T08:59:36;8.80;94.40
35603;DHT22;21725;50.836;4.368;2023-04-03T09:06:34;8.80;94.50
35603;DHT22;21725;50.836;4.368;2023-04-03T09:09:49;8.80;94.10
35603;DHT22;21725;50.836;4.368;2023-04-03T09:13:03;8.70;94.10
35603;DHT22;21725;50.836;4.368;2023-04-03T09:26:57;8.50;93.20
35603;DHT22;21725;50.836;4.368;2023-04-03T09:30:30;8.40;93.80
35603;DHT22;21725;50.836;4.368;2023-04-03T09:33:39;8.50;94.10
35603;DHT22;21725;50.836;4.368;2023-04-03T09:36:59;8.80;94.00
35603;DHT22;21725;50.836;4.368;2023-04-03T09:43:33;9.10;92.70
35603;DHT22;21725;50.836;4.368;2023-04-03T09:46:47;9.10;92.70
35603;DHT22;21725;50.836;4.368;2023-04-03T09:49:51;9.20;92.50
35603;DHT22;21725;50.836;4.368;2023-04-03T09:57:20;9.40;91.60
35603;DHT22;21725;50.836;4.368;2023-04-03T10:00:30;9.50;91.40
35603;DHT22;21725;50.836;4.368;2023-04-03T10:03:42;9.40;91.80
35603;DHT22;21725;50.836;4.368;2023-04-03T10:07:35;9.50;92.00
35603;DHT22;21725;50.836;4.368;2023-04-03T10:51:51;10.80;84.20
35603;DHT22;21725;50.836;4.368;2023-04-03T10:58:50;10.70;84.00
35603;DHT22;21725;50.836;4.368;2023-04-03T11:02:28;10.90;85.10
35603;DHT22;21725;50.836;4.368;2023-04-03T11:05:45;11.10;81.70
35603;DHT22;21725;50.836;4.368;2023-04-03T11:15:39;11.30;77.60
35603;DHT22;21725;50.836;4.368;2023-04-03T11:19:37;11.10;76.90
35603;DHT22;21725;50.836;4.368;2023-04-03T11:23:03;11.00;77.80
35603;DHT22;21725;50.836;4.368;2023-04-03T11:29:35;11.00;76.60
35603;DHT22;21725;50.836;4.368;2023-04-03T11:36:34;11.10;78.90
35603;DHT22;21725;50.836;4.368;2023-04-03T11:50:58;11.80;77.50
35603;DHT22;21725;50.836;4.368;2023-04-03T11:58:40;11.50;78.70
35603;DHT22;21725;50.836;4.368;2023-04-03T12:01:56;11.30;76.40
35603;DHT22;21725;50.836;4.368;2023-04-03T12:05:27;11.50;77.10
35603;DHT22;21725;50.836;4.368;2023-04-03T12:12:26;11.40;77.70
35603;DHT22;21725;50.836;4.368;2023-04-03T12:22:11;11.70;75.70
35603;DHT22;21725;50.836;4.368;2023-04-03T12:33:12;11.90;72.70
35603;DHT22;21725;50.836;4.368;2023-04-03T12:47:44;12.00;68.80
35603;DHT22;21725;50.836;4.368;2023-04-03T12:50:49;11.80;68.70
35603;DHT22;21725;50.836;4.368;2023-04-03T12:54:26;11.70;69.80
35603;DHT22;21725;50.836;4.368;2023-04-03T12:57:30;12.30;69.80
35603;DHT22;21725;50.836;4.368;2023-04-03T13:00:32;11.50;70.00
35603;DHT22;21725;50.836;4.368;2023-04-03T13:07:29;11.50;69.90
35603;DHT22;21725;50.836;4.368;2023-04-03T13:14:24;12.00;67.70
35603;DHT22;21725;50.836;4.368;2023-04-03T13:18:10;11.90;67.40
35603;DHT22;21725;50.836;4.368;2023-04-03T13:21:28;11.80;68.10
35603;DHT22;21725;50.836;4.368;2023-04-03T13:24:39;11.70;68.40
35603;DHT22;21725;50.836;4.368;2023-04-03T13:27:58;11.90;66.70
35603;DHT22;21725;50.836;4.368;2023-04-03T13:34:17;11.90;66.10
35603;DHT22;21725;50.836;4.368;2023-04-03T13:37:39;11.80;66.20
35603;DHT22;21725;50.836;4.368;2023-04-03T13:40:54;11.90;65.40
35603;DHT22;21725;50.836;4.368;2023-04-03T13:47:45;12.10;65.70
35603;DHT22;21725;50.836;4.368;2023-04-03T13:51:04;12.30;64.90
35603;DHT22;21725;50.836;4.368;2023-04-03T13:54:25;12.30;63.90
35603;DHT22;21725;50.836;4.368;2023-04-03T13:57:53;12.40;65.70
35603;DHT22;21725;50.836;4.368;2023-04-03T14:01:18;12.50;66.10
35603;DHT22;21725;50.836;4.368;2023-04-03T14:04:32;12.40;67.40
35603;DHT22;21725;50.836;4.368;2023-04-03T14:07:36;12.50;65.50
35603;DHT22;21725;50.836;4.368;2023-04-03T14:10:40;12.40;65.10
35603;DHT22;21725;50.836;4.368;2023-04-03T14:13:44;12.20;66.30
35603;DHT22;21725;50.836;4.368;2023-04-03T14:16:48;12.30;67.30
35603;DHT22;21725;50.836;4.368;2023-04-03T14:19:55;12.30;66.60
35603;DHT22;21725;50.836;4.368;2023-04-03T14:23:01;12.30;64.50
35603;DHT22;21725;50.836;4.368;2023-04-03T14:26:23;12.00;66.80
35603;DHT22;21725;50.836;4.368;2023-04-03T14:29:33;11.80;67.60
35603;DHT22;21725;50.836;4.368;2023-04-03T14:32:41;11.90;65.70
35603;DHT22;21725;50.836;4.368;2023-04-03T14:35:45;11.30;65.80
35603;DHT22;21725;50.836;4.368;2023-04-03T14:39:19;11.70;66.40
35603;DHT22;21725;50.836;4.368;2023-04-03T14:42:24;12.00;67.00
35603;DHT22;21725;50.836;4.368;2023-04-03T14:45:26;12.10;65.80
35603;DHT22;21725;50.836;4.368;2023-04-03T14:48:43;12.20;66.00
35603;DHT22;21725;50.836;4.368;2023-04-03T14:52:16;11.90;66.00
35603;DHT22;21725;50.836;4.368;2023-04-03T14:55:38;12.00;66.30
35603;DHT22;21725;50.836;4.368;2023-04-03T14:58:41;12.10;66.00
35603;DHT22;21725;50.836;4.368;2023-04-03T15:02:01;12.20;65.90
35603;DHT22;21725;50.836;4.368;2023-04-03T15:05:14;12.30;66.30
35603;DHT22;21725;50.836;4.368;2023-04-03T15:08:26;12.20;66.90
35603;DHT22;21725;50.836;4.368;2023-04-03T15:11:34;12.20;66.50
35603;DHT22;21725;50.836;4.368;2023-04-03T15:14:42;12.30;65.70
35603;DHT22;21725;50.836;4.368;2023-04-03T15:17:44;12.40;64.70
35603;DHT22;21725;50.836;4.368;2023-04-03T15:20:50;12.20;65.10
35603;DHT22;21725;50.836;4.368;2023-04-03T15:24:09;12.00;65.50
35603;DHT22;21725;50.836;4.368;2023-04-03T15:27:17;12.00;65.00
35603;DHT22;21725;50.836;4.368;2023-04-03T15:30:36;11.80;64.40
35603;DHT22;21725;50.836;4.368;2023-04-03T15:33:52;11.80;64.80
35603;DHT22;21725;50.836;4.368;2023-04-03T15:37:03;11.90;65.00
35603;DHT22;21725;50.836;4.368;2023-04-03T15:40:15;12.00;64.80
35603;DHT22;21725;50.836;4.368;2023-04-03T15:43:30;12.10;64.50
35603;DHT22;21725;50.836;4.368;2023-04-03T15:46:36;11.90;64.50
35603;DHT22;21725;50.836;4.368;2023-04-03T15:49:40;11.80;65.20
35603;DHT22;21725;50.836;4.368;2023-04-03T15:52:49;11.80;64.70
35603;DHT22;21725;50.836;4.368;2023-04-03T15:56:01;11.70;64.80
35603;DHT22;21725;50.836;4.368;2023-04-03T15:59:15;11.80;65.20
35603;DHT22;21725;50.836;4.368;2023-04-03T16:02:34;11.90;66.20
35603;DHT22;21725;50.836;4.368;2023-04-03T16:31:16;9.40;73.30
35603;DHT22;21725;50.836;4.368;2023-04-03T16:34:17;9.70;73.80
35603;DHT22;21725;50.836;4.368;2023-04-03T16:37:29;10.20;72.80
35603;DHT22;21725;50.836;4.368;2023-04-03T16:40:35;10.50;72.70
35603;DHT22;21725;50.836;4.368;2023-04-03T16:44:03;10.90;71.50
35603;DHT22;21725;50.836;4.368;2023-04-03T16:47:14;11.20;70.80
35603;DHT22;21725;50.836;4.368;2023-04-03T16:50:28;11.40;70.90
35603;DHT22;21725;50.836;4.368;2023-04-03T16:53:39;10.60;71.30
35603;DHT22;21725;50.836;4.368;2023-04-03T16:56:51;11.30;71.30
35603;DHT22;21725;50.836;4.368;2023-04-03T16:59:54;11.40;71.50
35603;DHT22;21725;50.836;4.368;2023-04-03T17:03:03;11.40;71.40
35603;DHT22;21725;50.836;4.368;2023-04-03T17:06:06;11.50;72.20
35603;DHT22;21725;50.836;4.368;2023-04-03T17:09:15;11.50;71.40
35603;DHT22;21725;50.836;4.368;2023-04-03T17:12:23;11.40;71.20
35603;DHT22;21725;50.836;4.368;2023-04-03T17:15:28;11.50;70.90
35603;DHT22;21725;50.836;4.368;2023-04-03T17:18:32;11.50;71.70
35603;DHT22;21725;50.836;4.368;2023-04-03T17:21:34;11.10;71.30
35603;DHT22;21725;50.836;4.368;2023-04-03T17:24:39;11.40;71.80
35603;DHT22;21725;50.836;4.368;2023-04-03T17:27:43;11.40;71.70
35603;DHT22;21725;50.836;4.368;2023-04-03T17:30:51;11.30;72.20
35603;DHT22;21725;50.836;4.368;2023-04-03T17:34:00;11.20;72.80
35603;DHT22;21725;50.836;4.368;2023-04-03T17:37:15;11.30;72.30
35603;DHT22;21725;50.836;4.368;2023-04-03T17:40:16;11.40;72.00
35603;DHT22;21725;50.836;4.368;2023-04-03T17:43:24;11.30;72.00
35603;DHT22;21725;50.836;4.368;2023-04-03T17:46:32;11.20;72.30
35603;DHT22;21725;50.836;4.368;2023-04-03T17:50:13;11.00;72.50
35603;DHT22;21725;50.836;4.368;2023-04-03T17:53:16;11.00;73.00
35603;DHT22;21725;50.836;4.368;2023-04-03T17:56:25;11.00;73.00
35603;DHT22;21725;50.836;4.368;2023-04-03T17:59:49;10.80;72.90
35603;DHT22;21725;50.836;4.368;2023-04-03T18:02:57;10.70;73.60
35603;DHT22;21725;50.836;4.368;2023-04-03T18:06:17;10.80;73.70
35603;DHT22;21725;50.836;4.368;2023-04-03T18:09:29;10.80;73.90
35603;DHT22;21725;50.836;4.368;2023-04-03T18:12:48;10.80;74.00
35603;DHT22;21725;50.836;4.368;2023-04-03T18:15:58;10.70;74.50
35603;DHT22;21725;50.836;4.368;2023-04-03T18:18:59;10.70;74.50
35603;DHT22;21725;50.836;4.368;2023-04-03T18:22:16;10.70;74.00
35603;DHT22;21725;50.836;4.368;2023-04-03T18:25:21;10.60;74.00
35603;DHT22;21725;50.836;4.368;2023-04-03T18:28:30;10.50;74.50
35603;DHT22;21725;50.836;4.368;2023-04-03T18:31:44;10.30;75.20
35603;DHT22;21725;50.836;4.368;2023-04-03T18:34:56;10.30;74.50
35603;DHT22;21725;50.836;4.368;2023-04-03T18:38:02;10.20;74.80
35603;DHT22;21725;50.836;4.368;2023-04-03T18:41:14;10.20;74.70
35603;DHT22;21725;50.836;4.368;2023-04-03T18:44:25;10.30;74.20
35603;DHT22;21725;50.836;4.368;2023-04-03T18:47:32;10.10;74.50
35603;DHT22;21725;50.836;4.368;2023-04-03T18:50:40;10.00;74.60
35603;DHT22;21725;50.836;4.368;2023-04-03T18:53:46;10.00;75.00
35603;DHT22;21725;50.836;4.368;2023-04-03T18:56:54;10.00;75.50
35603;DHT22;21725;50.836;4.368;2023-04-03T19:00:00;9.90;75.00
35603;DHT22;21725;50.836;4.368;2023-04-03T19:03:04;9.80;75.60
35603;DHT22;21725;50.836;4.368;2023-04-03T19:06:24;9.70;75.70
35603;DHT22;21725;50.836;4.368;2023-04-03T19:09:34;9.80;75.70
35603;DHT22;21725;50.836;4.368;2023-04-03T19:12:37;9.70;76.20
35603;DHT22;21725;50.836;4.368;2023-04-03T19:15:40;9.70;76.30
35603;DHT22;21725;50.836;4.368;2023-04-03T19:18:50;9.70;76.80
35603;DHT22;21725;50.836;4.368;2023-04-03T19:21:53;9.80;76.40
35603;DHT22;21725;50.836;4.368;2023-04-03T19:25:14;9.70;76.80
35603;DHT22;21725;50.836;4.368;2023-04-03T19:28:20;9.70;76.70
35603;DHT22;21725;50.836;4.368;2023-04-03T19:31:28;9.70;76.60
35603;DHT22;21725;50.836;4.368;2023-04-03T19:34:39;9.60;76.80
35603;DHT22;21725;50.836;4.368;2023-04-03T19:37:43;9.60;76.90
35603;DHT22;21725;50.836;4.368;2023-04-03T19:40:52;9.70;76.30
35603;DHT22;21725;50.836;4.368;2023-04-03T19:44:06;9.50;76.70
35603;DHT22;21725;50.836;4.368;2023-04-03T19:47:25;9.40;77.50
35603;DHT22;21725;50.836;4.368;2023-04-03T19:50:35;9.30;77.70
35603;DHT22;21725;50.836;4.368;2023-04-03T19:53:43;9.40;77.30
35603;DHT22;21725;50.836;4.368;2023-04-03T19:56:55;9.50;77.10
35603;DHT22;21725;50.836;4.368;2023-04-03T19:59:59;9.30;77.30
35603;DHT22;21725;50.836;4.368;2023-04-03T20:03:03;9.10;77.70
35603;DHT22;21725;50.836;4.368;2023-04-03T20:06:13;9.00;78.00
35603;DHT22;21725;50.836;4.368;2023-04-03T20:09:24;9.00;78.40
35603;DHT22;21725;50.836;4.368;2023-04-03T20:12:28;9.00;78.50
35603;DHT22;21725;50.836;4.368;2023-04-03T20:15:34;8.80;78.30
35603;DHT22;21725;50.836;4.368;2023-04-03T20:18:43;8.80;78.80
35603;DHT22;21725;50.836;4.368;2023-04-03T20:21:46;8.80;79.10
35603;DHT22;21725;50.836;4.368;2023-04-03T20:25:00;8.70;79.40
35603;DHT22;21725;50.836;4.368;2023-04-03T20:28:26;8.70;79.80
35603;DHT22;21725;50.836;4.368;2023-04-03T20:31:36;8.70;80.00
35603;DHT22;21725;50.836;4.368;2023-04-03T20:34:47;8.60;80.20
35603;DHT22;21725;50.836;4.368;2023-04-03T20:37:51;8.60;80.60
35603;DHT22;21725;50.836;4.368;2023-04-03T20:40:54;8.50;80.90
35603;DHT22;21725;50.836;4.368;2023-04-03T20:43:57;8.40;81.10
35603;DHT22;21725;50.836;4.368;2023-04-03T20:46:59;7.90;81.00
35603;DHT22;21725;50.836;4.368;2023-04-03T20:50:03;8.40;81.50
35603;DHT22;21725;50.836;4.368;2023-04-03T20:53:11;8.30;81.90
35603;DHT22;21725;50.836;4.368;2023-04-03T20:56:13;8.20;81.90
35603;DHT22;21725;50.836;4.368;2023-04-03T20:59:15;8.20;82.10
35603;DHT22;21725;50.836;4.368;2023-04-03T21:02:17;8.20;82.30
35603;DHT22;21725;50.836;4.368;2023-04-03T21:05:18;8.20;82.30
35603;DHT22;21725;50.836;4.368;2023-04-03T21:19:08;8.40;83.00
35603;DHT22;21725;50.836;4.368;2023-04-03T21:22:26;8.30;82.50
35603;DHT22;21725;50.836;4.368;2023-04-03T21:25:27;8.10;83.00
35603;DHT22;21725;50.836;4.368;2023-04-03T21:28:31;8.00;83.60
35603;DHT22;21725;50.836;4.368;2023-04-03T21:34:50;7.90;83.90
35603;DHT22;21725;50.836;4.368;2023-04-03T21:38:03;8.00;83.90
35603;DHT22;21725;50.836;4.368;2023-04-03T21:41:13;8.10;84.00
35603;DHT22;21725;50.836;4.368;2023-04-03T21:44:19;8.00;83.80
35603;DHT22;21725;50.836;4.368;2023-04-03T21:47:23;7.80;84.30
35603;DHT22;21725;50.836;4.368;2023-04-03T21:50:23;7.80;84.70
35603;DHT22;21725;50.836;4.368;2023-04-03T21:53:24;7.80;84.40
35603;DHT22;21725;50.836;4.368;2023-04-03T21:56:30;7.80;84.30
35603;DHT22;21725;50.836;4.368;2023-04-03T21:59:48;7.70;84.60
35603;DHT22;21725;50.836;4.368;2023-04-03T22:02:51;7.50;84.90
35603;DHT22;21725;50.836;4.368;2023-04-03T22:06:05;7.40;85.50
35603;DHT22;21725;50.836;4.368;2023-04-03T22:09:16;7.40;85.60
35603;DHT22;21725;50.836;4.368;2023-04-03T22:32:05;5.10;91.00
35603;DHT22;21725;50.836;4.368;2023-04-03T22:35:17;5.10;91.90
35603;DHT22;21725;50.836;4.368;2023-04-03T22:38:23;5.50;91.50
35603;DHT22;21725;50.836;4.368;2023-04-03T22:41:24;6.10;90.10
35603;DHT22;21725;50.836;4.368;2023-04-03T22:44:37;6.40;89.40
35603;DHT22;21725;50.836;4.368;2023-04-03T22:47:45;6.70;88.40
35603;DHT22;21725;50.836;4.368;2023-04-03T22:50:51;6.80;88.00
35603;DHT22;21725;50.836;4.368;2023-04-03T22:53:55;6.80;87.90
35603;DHT22;21725;50.836;4.368;2023-04-03T22:56:58;6.90;87.80
35603;DHT22;21725;50.836;4.368;2023-04-03T23:00:27;7.00;87.20
35603;DHT22;21725;50.836;4.368;2023-04-03T23:03:32;7.00;86.60
35603;DHT22;21725;50.836;4.368;2023-04-03T23:06:33;6.90;87.10
35603;DHT22;21725;50.836;4.368;2023-04-03T23:09:34;6.90;87.10
35603;DHT22;21725;50.836;4.368;2023-04-03T23:12:40;6.90;87.40
35603;DHT22;21725;50.836;4.368;2023-04-03T23:15:57;6.80;87.40
35603;DHT22;21725;50.836;4.368;2023-04-03T23:19:00;6.90;87.40
35603;DHT22;21725;50.836;4.368;2023-04-03T23:22:01;6.80;87.40
35603;DHT22;21725;50.836;4.368;2023-04-03T23:25:12;6.80;87.80
35603;DHT22;21725;50.836;4.368;2023-04-03T23:28:13;7.00;87.60
35603;DHT22;21725;50.836;4.368;2023-04-03T23:31:14;6.80;87.50
35603;DHT22;21725;50.836;4.368;2023-04-03T23:34:25;6.80;87.70
35603;DHT22;21725;50.836;4.368;2023-04-03T23:37:29;6.90;87.00
35603;DHT22;21725;50.836;4.368;2023-04-03T23:40:29;6.70;87.30
35603;DHT22;21725;50.836;4.368;2023-04-03T23:43:30;6.90;87.10
35603;DHT22;21725;50.836;4.368;2023-04-03T23:46:36;6.80;87.40
35603;DHT22;21725;50.836;4.368;2023-04-03T23:49:49;6.70;87.80
35603;DHT22;21725;50.836;4.368;2023-04-03T23:52:52;6.90;87.50
35603;DHT22;21725;50.836;4.368;2023-04-03T23:55:53;7.00;87.20
35603;DHT22;21725;50.836;4.368;2023-04-03T23:58:54;6.90;86.90
